sensor_id;sensor_type;location;lat;lon;timestamp;P1;durP1;ratioP1;P2;durP2;ratioP2
12316;SDS011;6222;50.866;6.744;2022-07-11T00:02:09;2.50;;;1.30;;
12316;SDS011;6222;50.866;6.744;2022-07-11T00:04:36;3.13;;;1.52;;
12316;SDS011;6222;50.866;6.744;2022-07-11T00:07:03;1.98;;;1.30;;
12316;SDS011;6222;50.866;6.744;2022-07-11T00:09:31;2.58;;;1.40;;
12316;SDS011;6222;50.866;6.744;2022-07-11T00:11:59;3.78;;;1.63;;
12316;SDS011;6222;50.866;6.744;2022-07-11T00:14:27;2.95;;;1.65;;
12316;SDS011;6222;50.866;6.744;2022-07-11T00:16:55;2.95;;;1.60;;
12316;SDS011;6222;50.866;6.744;2022-07-11T00:19:22;3.40;;;1.40;;
12316;SDS011;6222;50.866;6.744;2022-07-11T00:21:50;2.60;;;1.60;;
12316;SDS011;6222;50.866;6.744;2022-07-11T00:24:17;2.78;;;1.50;;
12316;SDS011;6222;50.866;6.744;2022-07-11T00:26:45;1.80;;;1.60;;
12316;SDS011;6222;50.866;6.744;2022-07-11T00:29:12;2.10;;;1.33;;
12316;SDS011;6222;50.866;6.744;2022-07-11T00:31:41;3.15;;;1.60;;
12316;SDS011;6222;50.866;6.744;2022-07-11T00:34:08;2.47;;;1.42;;
12316;SDS011;6222;50.866;6.744;2022-07-11T00:36:35;4.82;;;1.70;;
12316;SDS011;6222;50.866;6.744;2022-07-11T00:39:02;2.67;;;1.50;;
12316;SDS011;6222;50.866;6.744;2022-07-11T00:41:30;2.38;;;1.55;;
12316;SDS011;6222;50.866;6.744;2022-07-11T00:43:58;2.25;;;1.45;;
12316;SDS011;6222;50.866;6.744;2022-07-11T00:46:27;3.92;;;1.40;;
12316;SDS011;6222;50.866;6.744;2022-07-11T00:48:56;1.77;;;1.40;;
12316;SDS011;6222;50.866;6.744;2022-07-11T00:51:23;2.65;;;1.45;;
12316;SDS011;6222;50.866;6.744;2022-07-11T00:53:52;2.45;;;1.60;;
12316;SDS011;6222;50.866;6.744;2022-07-11T00:56:19;3.70;;;1.60;;
12316;SDS011;6222;50.866;6.744;2022-07-11T00:58:46;3.28;;;1.67;;
12316;SDS011;6222;50.866;6.744;2022-07-11T01:01:14;4.43;;;1.70;;
12316;SDS011;6222;50.866;6.744;2022-07-11T01:03:41;4.40;;;1.70;;
12316;SDS011;6222;50.866;6.744;2022-07-11T01:06:09;2.67;;;1.50;;
12316;SDS011;6222;50.866;6.744;2022-07-11T01:08:37;2.08;;;1.33;;
12316;SDS011;6222;50.866;6.744;2022-07-11T01:11:05;2.90;;;1.70;;
12316;SDS011;6222;50.866;6.744;2022-07-11T01:13:34;2.45;;;1.50;;
12316;SDS011;6222;50.866;6.744;2022-07-11T01:16:11;2.83;;;1.58;;
12316;SDS011;6222;50.866;6.744;2022-07-11T01:18:39;2.83;;;1.70;;
12316;SDS011;6222;50.866;6.744;2022-07-11T01:21:10;2.87;;;1.70;;
12316;SDS011;6222;50.866;6.744;2022-07-11T01:23:38;3.83;;;1.85;;
12316;SDS011;6222;50.866;6.744;2022-07-11T01:26:05;4.78;;;1.90;;
12316;SDS011;6222;50.866;6.744;2022-07-11T01:28:33;3.53;;;1.60;;
12316;SDS011;6222;50.866;6.744;2022-07-11T01:31:00;4.00;;;1.90;;
12316;SDS011;6222;50.866;6.744;2022-07-11T01:33:27;3.53;;;1.60;;
12316;SDS011;6222;50.866;6.744;2022-07-11T01:35:54;2.45;;;2.00;;
12316;SDS011;6222;50.866;6.744;2022-07-11T01:38:21;3.85;;;1.80;;
12316;SDS011;6222;50.866;6.744;2022-07-11T01:40:49;3.17;;;1.60;;
12316;SDS011;6222;50.866;6.744;2022-07-11T01:43:17;4.78;;;2.20;;
12316;SDS011;6222;50.866;6.744;2022-07-11T01:45:44;3.40;;;1.70;;
12316;SDS011;6222;50.866;6.744;2022-07-11T01:48:11;2.55;;;1.50;;
12316;SDS011;6222;50.866;6.744;2022-07-11T01:50:38;3.17;;;1.80;;
12316;SDS011;6222;50.866;6.744;2022-07-11T01:53:05;3.13;;;1.63;;
12316;SDS011;6222;50.866;6.744;2022-07-11T01:55:33;4.88;;;2.00;;
12316;SDS011;6222;50.866;6.744;2022-07-11T01:58:01;2.65;;;1.70;;
12316;SDS011;6222;50.866;6.744;2022-07-11T02:00:29;2.05;;;1.60;;
12316;SDS011;6222;50.866;6.744;2022-07-11T02:02:56;3.20;;;1.70;;
12316;SDS011;6222;50.866;6.744;2022-07-11T02:05:23;2.53;;;1.88;;
12316;SDS011;6222;50.866;6.744;2022-07-11T02:07:50;3.70;;;1.90;;
12316;SDS011;6222;50.866;6.744;2022-07-11T02:10:35;2.80;;;1.60;;
12316;SDS011;6222;50.866;6.744;2022-07-11T02:13:03;5.43;;;1.88;;
12316;SDS011;6222;50.866;6.744;2022-07-11T02:15:30;4.22;;;2.00;;
12316;SDS011;6222;50.866;6.744;2022-07-11T02:17:57;3.38;;;1.88;;
12316;SDS011;6222;50.866;6.744;2022-07-11T02:20:24;3.72;;;1.88;;
12316;SDS011;6222;50.866;6.744;2022-07-11T02:22:52;4.10;;;1.93;;
12316;SDS011;6222;50.866;6.744;2022-07-11T02:25:19;4.53;;;2.10;;
12316;SDS011;6222;50.866;6.744;2022-07-11T02:27:47;3.60;;;2.00;;
12316;SDS011;6222;50.866;6.744;2022-07-11T02:30:16;2.45;;;2.00;;
12316;SDS011;6222;50.866;6.744;2022-07-11T02:32:43;2.67;;;1.80;;
12316;SDS011;6222;50.866;6.744;2022-07-11T02:35:10;2.85;;;1.90;;
12316;SDS011;6222;50.866;6.744;2022-07-11T02:37:37;4.00;;;2.20;;
12316;SDS011;6222;50.866;6.744;2022-07-11T02:40:05;2.63;;;1.70;;
12316;SDS011;6222;50.866;6.744;2022-07-11T02:42:33;3.10;;;1.83;;
12316;SDS011;6222;50.866;6.744;2022-07-11T02:45:00;4.35;;;1.92;;
12316;SDS011;6222;50.866;6.744;2022-07-11T02:47:28;4.47;;;2.03;;
12316;SDS011;6222;50.866;6.744;2022-07-11T02:49:55;2.90;;;2.05;;
12316;SDS011;6222;50.866;6.744;2022-07-11T02:52:22;4.30;;;2.25;;
12316;SDS011;6222;50.866;6.744;2022-07-11T02:54:49;2.75;;;1.80;;
12316;SDS011;6222;50.866;6.744;2022-07-11T02:57:17;2.97;;;2.10;;
12316;SDS011;6222;50.866;6.744;2022-07-11T02:59:44;3.85;;;2.20;;
12316;SDS011;6222;50.866;6.744;2022-07-11T03:02:11;4.90;;;2.23;;
12316;SDS011;6222;50.866;6.744;2022-07-11T03:04:39;4.80;;;2.30;;
12316;SDS011;6222;50.866;6.744;2022-07-11T03:07:07;5.30;;;2.60;;
12316;SDS011;6222;50.866;6.744;2022-07-11T03:09:34;3.40;;;2.40;;
12316;SDS011;6222;50.866;6.744;2022-07-11T03:12:01;3.30;;;2.50;;
12316;SDS011;6222;50.866;6.744;2022-07-11T03:14:28;4.70;;;2.45;;
12316;SDS011;6222;50.866;6.744;2022-07-11T03:16:56;4.35;;;2.42;;
12316;SDS011;6222;50.866;6.744;2022-07-11T03:19:23;3.70;;;2.55;;
12316;SDS011;6222;50.866;6.744;2022-07-11T03:21:51;4.93;;;2.40;;
12316;SDS011;6222;50.866;6.744;2022-07-11T03:24:18;7.65;;;2.90;;
12316;SDS011;6222;50.866;6.744;2022-07-11T03:26:45;3.97;;;2.65;;
12316;SDS011;6222;50.866;6.744;2022-07-11T03:29:13;4.63;;;2.60;;
12316;SDS011;6222;50.866;6.744;2022-07-11T03:31:40;9.57;;;3.97;;
12316;SDS011;6222;50.866;6.744;2022-07-11T03:34:07;3.60;;;2.58;;
12316;SDS011;6222;50.866;6.744;2022-07-11T03:36:34;4.40;;;2.63;;
12316;SDS011;6222;50.866;6.744;2022-07-11T03:39:02;3.80;;;3.28;;
12316;SDS011;6222;50.866;6.744;2022-07-11T03:41:29;5.45;;;3.40;;
12316;SDS011;6222;50.866;6.744;2022-07-11T03:43:56;3.05;;;2.35;;
12316;SDS011;6222;50.866;6.744;2022-07-11T03:46:24;3.03;;;2.60;;
12316;SDS011;6222;50.866;6.744;2022-07-11T03:48:51;3.38;;;2.55;;
12316;SDS011;6222;50.866;6.744;2022-07-11T03:51:18;4.47;;;2.63;;
12316;SDS011;6222;50.866;6.744;2022-07-11T03:53:45;4.57;;;2.80;;
12316;SDS011;6222;50.866;6.744;2022-07-11T03:56:13;3.58;;;2.83;;
12316;SDS011;6222;50.866;6.744;2022-07-11T03:58:45;4.05;;;3.00;;
12316;SDS011;6222;50.866;6.744;2022-07-11T04:01:12;4.38;;;2.70;;
12316;SDS011;6222;50.866;6.744;2022-07-11T04:03:39;4.73;;;3.00;;
12316;SDS011;6222;50.866;6.744;2022-07-11T04:06:06;5.90;;;3.28;;
12316;SDS011;6222;50.866;6.744;2022-07-11T04:08:33;5.43;;;3.17;;
12316;SDS011;6222;50.866;6.744;2022-07-11T04:11:01;4.03;;;3.20;;
12316;SDS011;6222;50.866;6.744;2022-07-11T04:13:30;5.05;;;3.20;;
12316;SDS011;6222;50.866;6.744;2022-07-11T04:15:57;4.88;;;3.35;;
12316;SDS011;6222;50.866;6.744;2022-07-11T04:18:25;5.38;;;3.08;;
12316;SDS011;6222;50.866;6.744;2022-07-11T04:20:52;4.90;;;3.30;;
12316;SDS011;6222;50.866;6.744;2022-07-11T04:23:19;5.10;;;3.28;;
12316;SDS011;6222;50.866;6.744;2022-07-11T04:25:46;6.47;;;3.60;;
12316;SDS011;6222;50.866;6.744;2022-07-11T04:28:13;7.90;;;4.32;;
12316;SDS011;6222;50.866;6.744;2022-07-11T04:30:42;4.53;;;3.28;;
12316;SDS011;6222;50.866;6.744;2022-07-11T04:33:09;5.95;;;3.35;;
12316;SDS011;6222;50.866;6.744;2022-07-11T04:35:36;5.45;;;3.22;;
12316;SDS011;6222;50.866;6.744;2022-07-11T04:38:03;5.20;;;3.63;;
12316;SDS011;6222;50.866;6.744;2022-07-11T04:40:31;6.25;;;3.30;;
12316;SDS011;6222;50.866;6.744;2022-07-11T04:42:58;8.10;;;3.70;;
12316;SDS011;6222;50.866;6.744;2022-07-11T04:45:25;5.53;;;3.43;;
12316;SDS011;6222;50.866;6.744;2022-07-11T04:47:53;5.20;;;3.50;;
12316;SDS011;6222;50.866;6.744;2022-07-11T04:50:21;5.05;;;3.55;;
12316;SDS011;6222;50.866;6.744;2022-07-11T04:52:48;5.38;;;3.60;;
12316;SDS011;6222;50.866;6.744;2022-07-11T04:55:15;4.93;;;3.20;;
12316;SDS011;6222;50.866;6.744;2022-07-11T04:57:42;4.88;;;3.10;;
12316;SDS011;6222;50.866;6.744;2022-07-11T05:00:10;9.32;;;4.30;;
12316;SDS011;6222;50.866;6.744;2022-07-11T05:02:37;4.90;;;3.60;;
12316;SDS011;6222;50.866;6.744;2022-07-11T05:05:06;7.53;;;3.60;;
12316;SDS011;6222;50.866;6.744;2022-07-11T05:07:33;5.15;;;3.38;;
12316;SDS011;6222;50.866;6.744;2022-07-11T05:10:01;8.10;;;3.53;;
12316;SDS011;6222;50.866;6.744;2022-07-11T05:12:28;4.85;;;3.55;;
12316;SDS011;6222;50.866;6.744;2022-07-11T05:14:55;5.82;;;3.38;;
12316;SDS011;6222;50.866;6.744;2022-07-11T05:17:23;5.35;;;3.35;;
12316;SDS011;6222;50.866;6.744;2022-07-11T05:19:50;8.38;;;3.60;;
12316;SDS011;6222;50.866;6.744;2022-07-11T05:22:19;8.45;;;3.60;;
12316;SDS011;6222;50.866;6.744;2022-07-11T05:24:46;5.63;;;3.33;;
12316;SDS011;6222;50.866;6.744;2022-07-11T05:27:13;9.65;;;3.78;;
12316;SDS011;6222;50.866;6.744;2022-07-11T05:29:40;6.13;;;3.38;;
12316;SDS011;6222;50.866;6.744;2022-07-11T05:32:07;6.57;;;3.63;;
12316;SDS011;6222;50.866;6.744;2022-07-11T05:34:35;6.35;;;3.50;;
12316;SDS011;6222;50.866;6.744;2022-07-11T05:37:02;5.47;;;3.63;;
12316;SDS011;6222;50.866;6.744;2022-07-11T05:39:31;6.32;;;3.60;;
12316;SDS011;6222;50.866;6.744;2022-07-11T05:41:58;7.35;;;4.60;;
12316;SDS011;6222;50.866;6.744;2022-07-11T05:44:25;6.63;;;3.80;;
12316;SDS011;6222;50.866;6.744;2022-07-11T05:46:52;7.35;;;3.90;;
12316;SDS011;6222;50.866;6.744;2022-07-11T05:49:20;6.18;;;3.85;;
12316;SDS011;6222;50.866;6.744;2022-07-11T05:51:47;7.03;;;3.87;;
12316;SDS011;6222;50.866;6.744;2022-07-11T05:54:14;5.97;;;3.40;;
12316;SDS011;6222;50.866;6.744;2022-07-11T05:56:43;6.50;;;3.30;;
12316;SDS011;6222;50.866;6.744;2022-07-11T05:59:10;7.00;;;3.70;;
12316;SDS011;6222;50.866;6.744;2022-07-11T06:01:37;8.10;;;3.58;;
12316;SDS011;6222;50.866;6.744;2022-07-11T06:04:04;5.25;;;3.45;;
12316;SDS011;6222;50.866;6.744;2022-07-11T06:06:31;5.93;;;3.10;;
12316;SDS011;6222;50.866;6.744;2022-07-11T06:08:58;5.57;;;3.15;;
12316;SDS011;6222;50.866;6.744;2022-07-11T06:11:24;6.95;;;3.60;;
12316;SDS011;6222;50.866;6.744;2022-07-11T06:13:53;4.73;;;3.00;;
12316;SDS011;6222;50.866;6.744;2022-07-11T06:16:20;5.32;;;3.03;;
12316;SDS011;6222;50.866;6.744;2022-07-11T06:18:48;5.13;;;2.72;;
12316;SDS011;6222;50.866;6.744;2022-07-11T06:21:16;4.88;;;2.70;;
12316;SDS011;6222;50.866;6.744;2022-07-11T06:23:43;4.50;;;2.60;;
12316;SDS011;6222;50.866;6.744;2022-07-11T06:26:10;5.25;;;2.60;;
12316;SDS011;6222;50.866;6.744;2022-07-11T06:28:39;4.30;;;2.97;;
12316;SDS011;6222;50.866;6.744;2022-07-11T06:31:08;3.92;;;2.53;;
12316;SDS011;6222;50.866;6.744;2022-07-11T06:33:35;3.95;;;2.30;;
12316;SDS011;6222;50.866;6.744;2022-07-11T06:36:03;7.15;;;2.65;;
12316;SDS011;6222;50.866;6.744;2022-07-11T06:38:30;6.37;;;3.03;;
12316;SDS011;6222;50.866;6.744;2022-07-11T06:40:57;5.37;;;2.43;;
12316;SDS011;6222;50.866;6.744;2022-07-11T06:43:24;4.87;;;2.30;;
12316;SDS011;6222;50.866;6.744;2022-07-11T06:45:52;4.63;;;2.30;;
12316;SDS011;6222;50.866;6.744;2022-07-11T06:48:20;4.45;;;2.50;;
12316;SDS011;6222;50.866;6.744;2022-07-11T06:50:48;4.05;;;2.70;;
12316;SDS011;6222;50.866;6.744;2022-07-11T06:53:15;4.63;;;2.42;;
12316;SDS011;6222;50.866;6.744;2022-07-11T06:55:42;4.82;;;3.08;;
12316;SDS011;6222;50.866;6.744;2022-07-11T06:58:09;4.05;;;2.85;;
12316;SDS011;6222;50.866;6.744;2022-07-11T07:00:37;4.65;;;2.95;;
12316;SDS011;6222;50.866;6.744;2022-07-11T07:03:04;4.65;;;3.08;;
12316;SDS011;6222;50.866;6.744;2022-07-11T07:05:34;4.87;;;2.60;;
12316;SDS011;6222;50.866;6.744;2022-07-11T07:08:02;3.88;;;2.55;;
12316;SDS011;6222;50.866;6.744;2022-07-11T07:10:29;4.22;;;2.92;;
12316;SDS011;6222;50.866;6.744;2022-07-11T07:12:56;4.20;;;2.65;;
12316;SDS011;6222;50.866;6.744;2022-07-11T07:15:23;4.43;;;2.70;;
12316;SDS011;6222;50.866;6.744;2022-07-11T07:17:50;5.13;;;2.80;;
12316;SDS011;6222;50.866;6.744;2022-07-11T07:20:17;4.53;;;3.00;;
12316;SDS011;6222;50.866;6.744;2022-07-11T07:22:46;5.57;;;3.00;;
12316;SDS011;6222;50.866;6.744;2022-07-11T07:25:13;3.92;;;2.65;;
12316;SDS011;6222;50.866;6.744;2022-07-11T07:27:41;3.47;;;2.58;;
12316;SDS011;6222;50.866;6.744;2022-07-11T07:30:08;5.85;;;2.75;;
12316;SDS011;6222;50.866;6.744;2022-07-11T07:32:35;4.10;;;2.38;;
12316;SDS011;6222;50.866;6.744;2022-07-11T07:35:03;4.03;;;2.78;;
12316;SDS011;6222;50.866;6.744;2022-07-11T07:37:30;4.85;;;2.88;;
12316;SDS011;6222;50.866;6.744;2022-07-11T07:39:58;4.78;;;3.15;;
12316;SDS011;6222;50.866;6.744;2022-07-11T07:42:26;5.97;;;3.15;;
12316;SDS011;6222;50.866;6.744;2022-07-11T07:44:53;6.65;;;2.80;;
12316;SDS011;6222;50.866;6.744;2022-07-11T07:47:20;4.70;;;3.00;;
12316;SDS011;6222;50.866;6.744;2022-07-11T07:49:47;6.60;;;3.92;;
12316;SDS011;6222;50.866;6.744;2022-07-11T07:52:14;4.90;;;3.85;;
12316;SDS011;6222;50.866;6.744;2022-07-11T07:54:42;6.25;;;3.70;;
12316;SDS011;6222;50.866;6.744;2022-07-11T07:57:10;5.53;;;3.90;;
12316;SDS011;6222;50.866;6.744;2022-07-11T07:59:37;4.95;;;3.45;;
12316;SDS011;6222;50.866;6.744;2022-07-11T08:02:04;5.82;;;4.05;;
12316;SDS011;6222;50.866;6.744;2022-07-11T08:04:30;5.50;;;3.65;;
12316;SDS011;6222;50.866;6.744;2022-07-11T08:06:58;5.57;;;3.70;;
12316;SDS011;6222;50.866;6.744;2022-07-11T08:09:25;5.57;;;3.45;;
12316;SDS011;6222;50.866;6.744;2022-07-11T08:11:52;3.47;;;3.00;;
12316;SDS011;6222;50.866;6.744;2022-07-11T08:14:21;4.72;;;3.15;;
12316;SDS011;6222;50.866;6.744;2022-07-11T08:16:49;4.75;;;2.75;;
12316;SDS011;6222;50.866;6.744;2022-07-11T08:19:16;4.47;;;2.70;;
12316;SDS011;6222;50.866;6.744;2022-07-11T08:21:43;6.47;;;4.28;;
12316;SDS011;6222;50.866;6.744;2022-07-11T08:24:10;7.38;;;5.88;;
12316;SDS011;6222;50.866;6.744;2022-07-11T08:26:37;7.63;;;6.75;;
12316;SDS011;6222;50.866;6.744;2022-07-11T08:29:05;10.75;;;7.88;;
12316;SDS011;6222;50.866;6.744;2022-07-11T08:31:33;8.27;;;6.93;;
12316;SDS011;6222;50.866;6.744;2022-07-11T08:34:01;6.57;;;5.87;;
12316;SDS011;6222;50.866;6.744;2022-07-11T08:36:28;5.32;;;4.70;;
12316;SDS011;6222;50.866;6.744;2022-07-11T08:39:00;5.82;;;4.60;;
12316;SDS011;6222;50.866;6.744;2022-07-11T08:41:27;5.15;;;4.18;;
12316;SDS011;6222;50.866;6.744;2022-07-11T08:43:54;6.63;;;4.45;;
12316;SDS011;6222;50.866;6.744;2022-07-11T08:46:21;4.28;;;3.60;;
12316;SDS011;6222;50.866;6.744;2022-07-11T08:48:51;7.72;;;5.78;;
12316;SDS011;6222;50.866;6.744;2022-07-11T08:51:18;8.30;;;7.13;;
12316;SDS011;6222;50.866;6.744;2022-07-11T08:53:45;12.88;;;9.70;;
12316;SDS011;6222;50.866;6.744;2022-07-11T08:56:12;10.60;;;7.97;;
12316;SDS011;6222;50.866;6.744;2022-07-11T08:58:45;11.02;;;8.80;;
12316;SDS011;6222;50.866;6.744;2022-07-11T09:01:14;9.95;;;7.40;;
12316;SDS011;6222;50.866;6.744;2022-07-11T09:03:42;10.55;;;8.73;;
12316;SDS011;6222;50.866;6.744;2022-07-11T09:06:11;11.02;;;8.75;;
12316;SDS011;6222;50.866;6.744;2022-07-11T09:08:38;11.93;;;10.48;;
12316;SDS011;6222;50.866;6.744;2022-07-11T09:11:06;10.20;;;8.50;;
12316;SDS011;6222;50.866;6.744;2022-07-11T09:13:33;9.27;;;8.27;;
12316;SDS011;6222;50.866;6.744;2022-07-11T09:16:02;10.10;;;9.10;;
12316;SDS011;6222;50.866;6.744;2022-07-11T09:18:31;15.40;;;11.30;;
12316;SDS011;6222;50.866;6.744;2022-07-11T09:20:59;12.57;;;11.05;;
12316;SDS011;6222;50.866;6.744;2022-07-11T09:23:45;12.20;;;9.80;;
12316;SDS011;6222;50.866;6.744;2022-07-11T09:26:30;12.13;;;10.82;;
12316;SDS011;6222;50.866;6.744;2022-07-11T09:28:58;10.63;;;8.50;;
12316;SDS011;6222;50.866;6.744;2022-07-11T09:31:26;8.70;;;7.70;;
12316;SDS011;6222;50.866;6.744;2022-07-11T09:34:02;9.60;;;7.60;;
12316;SDS011;6222;50.866;6.744;2022-07-11T09:36:36;8.73;;;7.00;;
12316;SDS011;6222;50.866;6.744;2022-07-11T09:39:05;8.18;;;7.38;;
12316;SDS011;6222;50.866;6.744;2022-07-11T09:41:33;9.10;;;6.18;;
12316;SDS011;6222;50.866;6.744;2022-07-11T09:44:10;10.88;;;6.72;;
12316;SDS011;6222;50.866;6.744;2022-07-11T09:46:37;8.68;;;6.60;;
12316;SDS011;6222;50.866;6.744;2022-07-11T09:49:05;7.30;;;6.47;;
12316;SDS011;6222;50.866;6.744;2022-07-11T09:51:33;8.32;;;5.85;;
12316;SDS011;6222;50.866;6.744;2022-07-11T09:54:01;7.75;;;5.50;;
12316;SDS011;6222;50.866;6.744;2022-07-11T09:56:34;9.57;;;6.93;;
12316;SDS011;6222;50.866;6.744;2022-07-11T09:59:03;6.43;;;5.82;;
12316;SDS011;6222;50.866;6.744;2022-07-11T10:01:30;8.85;;;6.38;;
12316;SDS011;6222;50.866;6.744;2022-07-11T10:03:58;5.63;;;4.67;;
12316;SDS011;6222;50.866;6.744;2022-07-11T10:06:25;5.20;;;4.70;;
12316;SDS011;6222;50.866;6.744;2022-07-11T10:08:53;4.97;;;4.50;;
12316;SDS011;6222;50.866;6.744;2022-07-11T10:11:20;5.55;;;4.93;;
12316;SDS011;6222;50.866;6.744;2022-07-11T10:13:49;6.60;;;5.45;;
12316;SDS011;6222;50.866;6.744;2022-07-11T10:16:20;5.60;;;5.05;;
12316;SDS011;6222;50.866;6.744;2022-07-11T10:18:50;6.40;;;5.80;;
12316;SDS011;6222;50.866;6.744;2022-07-11T10:21:22;9.60;;;8.70;;
12316;SDS011;6222;50.866;6.744;2022-07-11T10:23:52;9.90;;;9.00;;
12316;SDS011;6222;50.866;6.744;2022-07-11T10:26:21;9.38;;;8.38;;
12316;SDS011;6222;50.866;6.744;2022-07-11T10:28:52;6.38;;;5.78;;
12316;SDS011;6222;50.866;6.744;2022-07-11T10:31:21;6.93;;;6.22;;
12316;SDS011;6222;50.866;6.744;2022-07-11T10:34:01;7.53;;;6.03;;
12316;SDS011;6222;50.866;6.744;2022-07-11T10:36:29;5.72;;;4.63;;
12316;SDS011;6222;50.866;6.744;2022-07-11T10:41:38;3.78;;;3.30;;
12316;SDS011;6222;50.866;6.744;2022-07-11T10:44:07;4.30;;;3.60;;
12316;SDS011;6222;50.866;6.744;2022-07-11T10:46:34;4.18;;;3.78;;
12316;SDS011;6222;50.866;6.744;2022-07-11T10:49:05;6.00;;;5.30;;
12316;SDS011;6222;50.866;6.744;2022-07-11T10:51:36;6.30;;;5.28;;
12316;SDS011;6222;50.866;6.744;2022-07-11T10:54:11;6.93;;;6.22;;
12316;SDS011;6222;50.866;6.744;2022-07-11T10:56:43;7.57;;;6.70;;
12316;SDS011;6222;50.866;6.744;2022-07-11T10:59:15;6.28;;;5.68;;
12316;SDS011;6222;50.866;6.744;2022-07-11T11:02:08;6.30;;;5.45;;
12316;SDS011;6222;50.866;6.744;2022-07-11T11:04:47;6.70;;;5.35;;
12316;SDS011;6222;50.866;6.744;2022-07-11T11:09:59;6.13;;;5.53;;
12316;SDS011;6222;50.866;6.744;2022-07-11T11:17:58;9.43;;;8.63;;
12316;SDS011;6222;50.866;6.744;2022-07-11T11:20:47;6.97;;;6.27;;
12316;SDS011;6222;50.866;6.744;2022-07-11T11:23:34;7.43;;;5.35;;
12316;SDS011;6222;50.866;6.744;2022-07-11T11:26:03;5.30;;;4.80;;
12316;SDS011;6222;50.866;6.744;2022-07-11T11:28:30;5.05;;;4.38;;
12316;SDS011;6222;50.866;6.744;2022-07-11T11:30:58;5.30;;;4.80;;
12316;SDS011;6222;50.866;6.744;2022-07-11T11:33:26;4.15;;;3.45;;
12316;SDS011;6222;50.866;6.744;2022-07-11T11:36:00;3.22;;;3.00;;
12316;SDS011;6222;50.866;6.744;2022-07-11T11:38:27;4.15;;;3.45;;
12316;SDS011;6222;50.866;6.744;2022-07-11T11:40:55;3.60;;;3.30;;
12316;SDS011;6222;50.866;6.744;2022-07-11T11:43:22;3.35;;;3.05;;
12316;SDS011;6222;50.866;6.744;2022-07-11T11:45:49;3.22;;;2.92;;
12316;SDS011;6222;50.866;6.744;2022-07-11T11:48:26;3.70;;;3.40;;
12316;SDS011;6222;50.866;6.744;2022-07-11T11:51:00;6.50;;;5.90;;
12316;SDS011;6222;50.866;6.744;2022-07-11T11:53:28;4.85;;;4.38;;
12316;SDS011;6222;50.866;6.744;2022-07-11T11:55:55;4.55;;;4.15;;
12316;SDS011;6222;50.866;6.744;2022-07-11T11:58:24;3.70;;;3.40;;
12316;SDS011;6222;50.866;6.744;2022-07-11T12:00:53;2.90;;;2.60;;
12316;SDS011;6222;50.866;6.744;2022-07-11T12:03:20;3.47;;;3.17;;
12316;SDS011;6222;50.866;6.744;2022-07-11T12:05:54;2.57;;;2.37;;
12316;SDS011;6222;50.866;6.744;2022-07-11T12:08:26;3.00;;;2.70;;
12316;SDS011;6222;50.866;6.744;2022-07-11T12:10:54;9.02;;;5.20;;
12316;SDS011;6222;50.866;6.744;2022-07-11T12:13:21;2.42;;;2.15;;
12316;SDS011;6222;50.866;6.744;2022-07-11T12:15:48;2.42;;;2.10;;
12316;SDS011;6222;50.866;6.744;2022-07-11T12:18:35;3.60;;;2.37;;
12316;SDS011;6222;50.866;6.744;2022-07-11T12:21:08;2.80;;;1.85;;
12316;SDS011;6222;50.866;6.744;2022-07-11T12:23:37;2.70;;;1.80;;
12316;SDS011;6222;50.866;6.744;2022-07-11T12:26:04;1.75;;;1.38;;
12316;SDS011;6222;50.866;6.744;2022-07-11T12:28:31;2.27;;;1.60;;
12316;SDS011;6222;50.866;6.744;2022-07-11T12:30:58;1.77;;;1.40;;
12316;SDS011;6222;50.866;6.744;2022-07-11T12:33:27;1.60;;;1.50;;
12316;SDS011;6222;50.866;6.744;2022-07-11T12:35:55;1.60;;;1.42;;
12316;SDS011;6222;50.866;6.744;2022-07-11T12:38:22;2.08;;;1.60;;
12316;SDS011;6222;50.866;6.744;2022-07-11T12:41:01;2.42;;;1.73;;
12316;SDS011;6222;50.866;6.744;2022-07-11T12:43:38;2.83;;;2.30;;
12316;SDS011;6222;50.866;6.744;2022-07-11T12:46:23;2.57;;;2.37;;
12316;SDS011;6222;50.866;6.744;2022-07-11T12:48:50;2.70;;;2.50;;
12316;SDS011;6222;50.866;6.744;2022-07-11T12:51:26;4.75;;;4.35;;
12316;SDS011;6222;50.866;6.744;2022-07-11T12:53:58;4.38;;;3.97;;
12316;SDS011;6222;50.866;6.744;2022-07-11T12:56:27;4.40;;;4.00;;
12316;SDS011;6222;50.866;6.744;2022-07-11T12:58:54;2.80;;;2.60;;
12316;SDS011;6222;50.866;6.744;2022-07-11T13:01:22;2.72;;;2.53;;
12316;SDS011;6222;50.866;6.744;2022-07-11T13:03:49;2.92;;;2.20;;
12316;SDS011;6222;50.866;6.744;2022-07-11T13:06:16;2.60;;;1.87;;
12316;SDS011;6222;50.866;6.744;2022-07-11T13:09:03;2.72;;;1.85;;
12316;SDS011;6222;50.866;6.744;2022-07-11T13:11:31;2.72;;;1.98;;
12316;SDS011;6222;50.866;6.744;2022-07-11T13:13:58;2.30;;;2.10;;
12316;SDS011;6222;50.866;6.744;2022-07-11T13:16:25;2.67;;;2.47;;
12316;SDS011;6222;50.866;6.744;2022-07-11T13:18:52;3.28;;;2.78;;
12316;SDS011;6222;50.866;6.744;2022-07-11T13:21:20;3.00;;;2.72;;
12316;SDS011;6222;50.866;6.744;2022-07-11T13:23:47;2.42;;;2.22;;
12316;SDS011;6222;50.866;6.744;2022-07-11T13:26:14;2.70;;;2.00;;
12316;SDS011;6222;50.866;6.744;2022-07-11T13:28:43;2.35;;;1.60;;
12316;SDS011;6222;50.866;6.744;2022-07-11T13:31:10;1.42;;;1.33;;
12316;SDS011;6222;50.866;6.744;2022-07-11T13:33:37;2.40;;;1.60;;
12316;SDS011;6222;50.866;6.744;2022-07-11T13:36:06;2.33;;;1.63;;
12316;SDS011;6222;50.866;6.744;2022-07-11T13:38:33;1.70;;;1.40;;
12316;SDS011;6222;50.866;6.744;2022-07-11T13:41:00;1.63;;;1.40;;
12316;SDS011;6222;50.866;6.744;2022-07-11T13:43:27;2.00;;;1.63;;
12316;SDS011;6222;50.866;6.744;2022-07-11T13:45:57;2.17;;;1.52;;
12316;SDS011;6222;50.866;6.744;2022-07-11T13:48:24;1.85;;;1.63;;
12316;SDS011;6222;50.866;6.744;2022-07-11T13:50:51;1.90;;;1.40;;
12316;SDS011;6222;50.866;6.744;2022-07-11T13:53:18;1.63;;;1.30;;
12316;SDS011;6222;50.866;6.744;2022-07-11T13:55:45;2.35;;;1.70;;
12316;SDS011;6222;50.866;6.744;2022-07-11T13:58:12;2.40;;;1.55;;
12316;SDS011;6222;50.866;6.744;2022-07-11T14:00:52;1.70;;;1.60;;
12316;SDS011;6222;50.866;6.744;2022-07-11T14:03:21;1.80;;;1.52;;
12316;SDS011;6222;50.866;6.744;2022-07-11T14:05:48;2.30;;;1.73;;
12316;SDS011;6222;50.866;6.744;2022-07-11T14:08:15;1.70;;;1.60;;
12316;SDS011;6222;50.866;6.744;2022-07-11T14:10:42;2.60;;;1.83;;
12316;SDS011;6222;50.866;6.744;2022-07-11T14:13:10;4.10;;;2.10;;
12316;SDS011;6222;50.866;6.744;2022-07-11T14:15:37;1.95;;;1.83;;
12316;SDS011;6222;50.866;6.744;2022-07-11T14:18:04;2.17;;;1.70;;
12316;SDS011;6222;50.866;6.744;2022-07-11T14:20:33;2.60;;;1.90;;
12316;SDS011;6222;50.866;6.744;2022-07-11T14:23:00;2.47;;;2.00;;
12316;SDS011;6222;50.866;6.744;2022-07-11T14:25:27;1.55;;;1.45;;
12316;SDS011;6222;50.866;6.744;2022-07-11T14:27:55;3.45;;;1.98;;
12316;SDS011;6222;50.866;6.744;2022-07-11T14:30:22;3.60;;;2.10;;
12316;SDS011;6222;50.866;6.744;2022-07-11T14:32:49;2.55;;;1.95;;
12316;SDS011;6222;50.866;6.744;2022-07-11T14:35:17;3.20;;;1.67;;
12316;SDS011;6222;50.866;6.744;2022-07-11T14:37:45;2.83;;;1.83;;
12316;SDS011;6222;50.866;6.744;2022-07-11T14:40:12;3.17;;;1.47;;
12316;SDS011;6222;50.866;6.744;2022-07-11T14:42:39;5.55;;;3.50;;
12316;SDS011;6222;50.866;6.744;2022-07-11T14:45:07;3.63;;;1.77;;
12316;SDS011;6222;50.866;6.744;2022-07-11T14:47:34;2.50;;;1.80;;
12316;SDS011;6222;50.866;6.744;2022-07-11T14:50:01;2.22;;;1.50;;
12316;SDS011;6222;50.866;6.744;2022-07-11T14:52:29;2.40;;;1.70;;
12316;SDS011;6222;50.866;6.744;2022-07-11T14:54:57;2.15;;;1.65;;
12316;SDS011;6222;50.866;6.744;2022-07-11T14:57:24;2.25;;;1.80;;
12316;SDS011;6222;50.866;6.744;2022-07-11T14:59:52;3.07;;;1.93;;
12316;SDS011;6222;50.866;6.744;2022-07-11T15:02:19;3.15;;;2.83;;
12316;SDS011;6222;50.866;6.744;2022-07-11T15:05:17;3.78;;;3.13;;
12316;SDS011;6222;50.866;6.744;2022-07-11T15:07:44;3.53;;;3.00;;
12316;SDS011;6222;50.866;6.744;2022-07-11T15:10:30;3.17;;;2.75;;
12316;SDS011;6222;50.866;6.744;2022-07-11T15:13:14;2.97;;;2.60;;
12316;SDS011;6222;50.866;6.744;2022-07-11T15:15:42;3.13;;;2.28;;
12316;SDS011;6222;50.866;6.744;2022-07-11T15:18:09;2.33;;;1.80;;
12316;SDS011;6222;50.866;6.744;2022-07-11T15:20:37;2.10;;;1.77;;